Antsiranana, Antsiranana Arrachart Airport (FMNA)

NameAntsiranana Arrachart Airport
CityAntsiranana
CountryMadagascar
ICAOFMNA
IATADIE
Altitude114 m
CoordinatesGoogle Map
Live Air TrafficLiveATC.net
METARFMNA 061100Z 14014KT 9999 FEW020 BKN040 30/21 Q1008
2019-12-06 11:00:00 Wind: Southeast (140°) 7.2 m/s - Visibility: > 10000 m - Temperature: 30 °C - Dew point: 21 °C - Humidity: 58.5% - Pressure: 1008 hPa

Sorry, no flights used the airport in this database.